• Join FlightAware (Why Join?)
  • Login
  • US Flag 
11:14PM EDT


 

Airport Tracker/Info


-or-


 

Live Flight TrackerFlight Track Log ✈ EJA396 ✈ 01-May-2013 ✈ KMSP - KTEB

Flight Track Log - Related Links

Times and Time Zones

All times are in EDT time to prevent confusion due to time zone crossing. See the EJA396 flight status page for this flight to view local times or setup timezone preferences in your user account.

Time Position Orientation Groundspeed Altitude Reporting Facility
EDT Latitude Longitude Course Direction KTS MPH feet Rate Location/Type
05:15PM 44.9000 -93.2333 North 181 208 3,300  Level Minneapolis TRACON
05:16PM 44.9403 -93.2275 North 171 197 6,500 3,960 Climbing Minneapolis Center
05:17PM 45.0056 -93.1767 29° Northeast 265 305 11,000 3,240 Climbing Minneapolis Center
05:18PM 44.9622 -93.0739 121° Southeast 317 365 13,200 2,460 Climbing Minneapolis Center
05:19PM 44.9147 -92.9525 119° Southeast 345 397 16,200 2,640 Climbing Minneapolis Center
05:20PM 44.8714 -92.8306 117° Southeast 349 402 18,700 2,160 Climbing Minneapolis Center
05:21PM 44.8264 -92.7047 117° Southeast 357 411 20,700 1,920 Climbing Minneapolis Center
05:22PM 44.7775 -92.5708 117° Southeast 379 436 22,700 1,920 Climbing Minneapolis Center
05:23PM 44.7281 -92.4319 117° Southeast 393 452 24,700 1,980 Climbing Minneapolis Center
05:24PM 44.6672 -92.2672 117° Southeast 397 457 26,800 1,740 Climbing Minneapolis Center
05:25PM 44.6192 -92.1322 117° Southeast 392 451 28,300 1,440 Climbing Minneapolis Center
05:26PM 44.5711 -92.0000 117° Southeast 385 443 29,800 1,440 Climbing Minneapolis Center
05:27PM 44.5228 -91.8686 117° Southeast 381 438 31,300 1,380 Climbing Minneapolis Center
05:28PM 44.4719 -91.7303 117° Southeast 396 456 32,700 1,140 Climbing Minneapolis Center
05:29PM 44.4186 -91.5861 117° Southeast 408 470 33,700 1,020 Climbing Minneapolis Center
05:30PM 44.3497 -91.4064 118° Southeast 424 488 34,900 1,020 Climbing Minneapolis Center
05:31PM 44.2939 -91.2531 117° Southeast 436 502 35,900 960 Climbing Minneapolis Center
05:32PM 44.2364 -91.0997 118° Southeast 443 510 36,900 960 Climbing Minneapolis Center
05:33PM 44.1786 -90.9475 118° Southeast 445 512 37,900 960 Climbing Minneapolis Center
05:34PM 44.1239 -90.8028 118° Southeast 438 504 38,900 960 Climbing Minneapolis Center
05:35PM 44.0772 -90.6497 113° Southeast 435 501 39,900 780 Climbing Minneapolis Center
05:36PM 44.0394 -90.4536 105° East 438 504 40,600 480 Climbing Minneapolis Center
05:37PM 44.0067 -90.2881 105° East 442 509 41,000 180 Climbing Minneapolis Center
05:38PM 43.9700 -90.1206 107° East 449 517 41,000  Level Minneapolis Center
05:39PM 43.9358 -89.9475 105° East 460 529 41,000  Level Minneapolis Center
05:41PM 43.9003 -89.7792 106° East 458 527 41,000  Level Minneapolis Center
05:42PM 43.8589 -89.5814 106° East 458 527 41,000  Level Minneapolis Center
05:43PM 43.8244 -89.4147 106° East 453 521 41,000  Level Minneapolis Center
05:44PM 43.7883 -89.2500 107° East 448 516 41,000  Level Minneapolis Center
05:45PM 43.7539 -89.0886 106° East 440 506 41,000  Level Minneapolis Center
05:46PM 43.7264 -88.9578 106° East 428 493 41,000  Level Minneapolis Center
05:47PM 43.6883 -88.7811 107° East 413 475 41,000  Level Minneapolis Center
05:48PM 43.6497 -88.6033 107° East 412 474 41,000  Level Minneapolis Center
05:49PM 43.6147 -88.4500 107° East 410 472 41,000  Level Minneapolis Center
05:49PM 43.6039 -88.3969 106° East 420 483 41,000  Level Chicago Center
05:50PM 43.5672 -88.2397 108° East 424 488 41,000  Level Chicago Center
05:51PM 43.5314 -88.0806 107° East 431 496 41,000  Level Chicago Center
05:52PM 43.4947 -87.9219 108° East 433 498 41,000  Level Chicago Center
05:53PM 43.4583 -87.7636 108° East 434 499 41,000  Level Chicago Center
05:54PM 43.4158 -87.5781 107° East 434 499 41,000  Level Chicago Center
05:55PM 43.3783 -87.4192 108° East 436 502 41,000  Level Chicago Center
05:56PM 43.3436 -87.2742 108° East 437 503 41,000  Level Chicago Center
05:57PM 43.2992 -87.0828 108° East 439 505 41,000  Level Chicago Center
05:58PM 43.2628 -86.9236 107° East 439 505 41,000  Level Chicago Center
06:00PM 43.2250 -86.7661 108° East 436 502 41,000  Level Chicago Center
06:01PM 43.1869 -86.6097 108° East 435 501 41,000  Level Chicago Center
06:02PM 43.1503 -86.4594 108° East 421 484 41,000  Level Chicago Center
06:03PM 43.1139 -86.3086 108° East 420 483 41,000  Level Chicago Center
06:04PM 43.0681 -86.1253 109° East 426 490 41,000  Level Chicago Center
06:05PM 43.0283 -85.9656 109° East 429 494 41,000  Level Chicago Center
06:06PM 42.9903 -85.8114 109° East 429 494 41,000  Level Chicago Center
06:07PM 42.9483 -85.6422 109° East 435 501 41,000  Level Chicago Center
06:08PM 42.9092 -85.4869 109° East 434 499 41,000  Level Chicago Center
06:09PM 42.8697 -85.3325 109° East 434 499 41,000  Level Chicago Center
06:10PM 42.8317 -85.1825 109° East 424 488 41,000  Level Chicago Center
06:11PM 42.7967 -85.0433 109° East 399 459 41,000  Level Chicago Center
06:12PM 42.7619 -84.9097 109° East 381 438 41,000  Level Chicago Center
06:13PM 42.7175 -84.7392 109° East 394 453 41,000  Level Chicago Center
06:14PM 42.6794 -84.5883 109° East 415 478 41,000  Level Chicago Center
06:15PM 42.6486 -84.4819 111° Southeast 413 475 41,000  Level Cleveland Center
06:16PM 42.6350 -84.3203 96° East 425 489 41,000  Level Cleveland Center
06:17PM 42.6172 -84.1583 98° East 430 495 41,000  Level Cleveland Center
06:18PM 42.6036 -83.9939 96° East 430 495 41,000  Level Cleveland Center
06:19PM 42.5894 -83.8267 97° East 430 495 41,000  Level Cleveland Center
06:20PM 42.5750 -83.6792 98° East 435 501 41,000  Level Cleveland Center
06:21PM 42.5583 -83.5119 98° East 435 501 41,000  Level Cleveland Center
06:22PM 42.5439 -83.3450 97° East 441 507 41,000  Level Cleveland Center
06:23PM 42.5267 -83.1808 98° East 446 513 41,000  Level Cleveland Center
06:24PM 42.5075 -83.0139 99° East 446 513 41,000  Level Cleveland Center
06:25PM 42.4922 -82.8472 97° East 446 513 41,000  Level Cleveland Center
06:26PM 42.4744 -82.6803 98° East 446 513 41,000  Level Cleveland Center
06:27PM 42.4564 -82.5139 98° East 446 513 41,000  Level Cleveland Center
06:29PM 42.4178 -82.1778 99° East 446 513 41,000  Level Cleveland Center
06:30PM 42.3994 -81.9947 98° East 452 520 41,000  Level Cleveland Center
06:31PM 42.3825 -81.8283 98° East 446 513 41,000  Level Cleveland Center
06:32PM 42.3633 -81.6594 99° East 451 519 41,000  Level Cleveland Center
06:33PM 42.3442 -81.4878 99° East 451 519 41,000  Level Cleveland Center
06:34PM 42.3244 -81.3189 99° East 451 519 41,000  Level Cleveland Center
06:35PM 42.3086 -81.1728 98° East 451 519 41,000  Level Cleveland Center
06:36PM 42.2886 -81.0014 99° East 451 519 41,000  Level Cleveland Center
06:37PM 42.2661 -80.8356 100° East 451 519 41,000  Level Cleveland Center
06:38PM 42.2433 -80.6644 100° East 451 519 41,000  Level Cleveland Center
06:39PM 42.2183 -80.4992 101° East 451 519 41,000  Level Cleveland Center
06:40PM 42.1911 -80.3169 101° East 446 513 41,000  Level Cleveland Center
06:41PM 42.1656 -80.1489 102° East 453 521 41,000  Level Cleveland Center
06:42PM 42.1419 -79.9811 101° East 448 516 41,000  Level Cleveland Center
06:43PM 42.1222 -79.8300 100° East 448 516 41,000  Level Cleveland Center
06:44PM 42.0961 -79.6653 102° East 448 516 41,000  Level Cleveland Center
06:45PM 42.0694 -79.4978 102° East 448 516 41,000  Level Cleveland Center
06:46PM 42.0428 -79.3333 102° East 448 516 41,000  Level Cleveland Center
06:47PM 42.0181 -79.1661 101° East 448 516 41,000  Level Cleveland Center
06:48PM 41.9886 -78.9992 103° East 448 516 41,000  Level Cleveland Center
06:49PM 41.9633 -78.8322 101° East 448 516 41,000  Level Cleveland Center
06:50PM 41.9378 -78.6656 102° East 448 516 41,000 -540 Level Cleveland Center
06:51PM 41.9097 -78.4961 102° East 448 516 40,000 -1,500 Descending Cleveland Center
06:52PM 41.8817 -78.3353 103° East 448 516 38,000 -1,560 Descending Cleveland Center
06:54PM 41.8264 -78.0000 102° East 407 468 35,000 -960 Descending New York Center
06:55PM 41.7997 -77.8522 104° East 399 459 35,000  Level New York Center
06:56PM 41.7719 -77.6908 103° East 415 478 35,000  Level New York Center
06:57PM 41.7436 -77.5292 103° East 433 498 35,000 -240 Level New York Center
06:58PM 41.7172 -77.3681 102° East 438 504 34,600 -1,200 Descending New York Center
06:59PM 41.6903 -77.2156 103° East 438 504 32,600 -2,280 Descending New York Center
07:00PM 41.6494 -77.0450 108° East 433 498 30,200 -2,280 Descending New York Center
07:01PM 41.6056 -76.8883 110° East 439 505 28,200 -2,040 Descending New York Center
07:02PM 41.5633 -76.7319 110° East 445 512 26,200 -1,920 Descending New York Center
07:03PM 41.5264 -76.5983 110° East 439 505 24,400 -1,140 Descending New York Center
07:04PM 41.4875 -76.4508 109° East 429 494 24,000 -240 Descending New York Center
07:05PM 41.4431 -76.2894 110° East 424 488 24,000  Level New York Center
07:06PM 41.4019 -76.1450 111° Southeast 424 488 24,000 -600 Level New York Center
07:07PM 41.3606 -76.0006 111° Southeast 419 482 22,800 -1,800 Descending New York Center
07:08PM 41.3206 -75.8622 111° Southeast 409 471 20,600 -2,160 Descending New York Center
07:09PM 41.2828 -75.7214 110° East 401 461 18,500 -2,160 Descending New York Center
07:10PM 41.2403 -75.5911 113° Southeast 394 453 16,300 -2,100 Descending New York Center
07:11PM 41.2053 -75.4811 113° Southeast 362 417 14,300 -1,980 Descending New York Center
07:12PM 41.1642 -75.3597 114° Southeast 344 396 12,300 -1,860 Descending New York Center
07:13PM 41.1303 -75.2639 115° Southeast 304 350 10,700 -1,680 Descending New York Center
07:14PM 41.0967 -75.1625 114° Southeast 297 342 9,100 -1,560 Descending New York Center
07:15PM 41.0683 -75.0781 114° Southeast 287 330 7,600 -1,560 Descending New York Center
07:16PM 41.0467 -74.9858 107° East 282 325 6,100 -1,200 Descending New York Center
07:17PM 41.0506 -74.8789 87° East 264 304 5,300 -1,080 Descending New York Center
07:18PM 41.0517 -74.7828 89° East 264 304 4,000 -660 Descending New York Center
07:19PM 41.0550 -74.6839 87° East 264 304 4,000  Level New York Center
07:20PM 41.0583 -74.5878 87° East 264 304 4,000 -240 Level New York Center
07:21PM 41.0611 -74.4969 88° East 251 289 3,600 -600 Descending New York Center
07:22PM 41.0636 -74.4200 88° East 220 253 2,900 -360 Descending New York Center
07:23PM 41.0681 -74.3378 86° East 215 247 2,900 60 Level New York Center
07:23PM 41.0667 -74.3167 95° East 217 250 3,000 60 Climbing New York TRACON
07:24PM 41.0667 -74.2333 90° East 226 260 3,000  Level New York TRACON
07:25PM 41.0500 -74.1667 108° East 211 243 3,000 -360 Level New York TRACON
07:26PM 41.0167 -74.1167 131° Southeast 185 213 2,400 -720 Descending New York TRACON
07:27PM 40.9667 -74.0833 153° Southeast 180 207 1,600 -600 Descending New York TRACON
07:28PM 40.9167 -74.0667 166° South 172 198 1,200 -480 Descending New York TRACON
07:29PM 40.8833 -74.0500 159° South 119 137 700 -600 Descending New York TRACON
07:31PM 40.8500 -74.0500 150° Southeast  Level FlightAware Approximate
07:38PM 40.8501 -74.0608 150° Southeast  Level Estimated